Time;durP1;ratioP1;P1;durP2;ratioP2;P2;SDS_P1;SDS_P2;PMS_P1;PMS_P2;Temp;Humidity;BMP_temperature;BMP_pressure;BME280_temperature;BME280_humidity;BME280_pressure;Samples;Min_cycle;Max_cycle;Signal;HPM_P1;HPM_P2
2022/09/07 00:01:39;;;;;;;;;;;;;;;;;;4973202;28;19976;-76
2022/09/07 00:04:04;;;;;;;;;;;;;;;;;;4973053;28;19987;-76
2022/09/07 00:06:33;;;;;;;;;;;;;;;;;;4973302;28;19973;-77
2022/09/07 00:08:58;;;;;;;;;;;;;;;;;;4972941;28;20016;-75
2022/09/07 00:11:23;;;;;;;;;;;;;;;;;;4972897;28;20373;-76
2022/09/07 00:13:49;;;;;;;;;;;;;;;;;;4972862;28;20324;-76
2022/09/07 00:16:14;;;;;;;;;;;;;;;;;;4989149;28;20316;-76
2022/09/07 00:18:39;;;;;;;;;;;;;;;;;;4976243;28;19964;-76
2022/09/07 00:21:05;;;;;;;;;;;;;;;;;;4991417;28;20013;-76
2022/09/07 00:23:30;;;;;;;;;;;;;;;;;;4975203;28;20403;-76
2022/09/07 00:25:55;;;;;;;;;;;;;;;;;;4991539;28;20008;-76
2022/09/07 00:28:21;;;;;;;;;;;;;;;;;;4976075;28;19918;-76
2022/09/07 00:30:46;;;;;;;;;;;;;;;;;;4976165;28;19914;-74
2022/09/07 00:33:12;;;;;;;;;;;;;;;;;;4975789;28;19925;-78
2022/09/07 00:35:37;;;;;;;;;;;;;;;;;;4991204;28;20001;-75
2022/09/07 00:38:03;;;;;;;;;;;;;;;;;;4975956;28;19914;-77
2022/09/07 00:40:28;;;;;;;;;;;;;;;;;;4976231;28;19961;-76
2022/09/07 00:42:53;;;;;;;;;;;;;;;;;;4975847;28;19988;-77
2022/09/07 00:45:19;;;;;;;;;;;;;;;;;;4975984;28;19920;-77
2022/09/07 00:47:44;;;;;;;;;;;;;;;;;;4990707;28;19918;-74
2022/09/07 00:50:09;;;;;;;;;;;;;;;;;;4975922;28;20001;-76
2022/09/07 00:52:35;;;;;;;;;;;;;;;;;;4990750;28;19965;-78
2022/09/07 00:55:00;;;;;;;;;;;;;;;;;;4975776;28;19960;-79
2022/09/07 00:57:27;;;;;;;;;;;;;;;;;;4975627;28;19914;-78
2022/09/07 00:59:52;;;;;;;;;;;;;;;;;;4974627;28;19914;-77
2022/09/07 01:02:17;;;;;;;;;;;;;;;;;;4990548;28;19922;-76
2022/09/07 01:04:42;;;;;;;;;;;;;;;;;;4975637;28;20301;-77
2022/09/07 01:07:08;;;;;;;;;;;;;;;;;;4975375;28;19922;-78
2022/09/07 01:09:33;;;;;;;;;;;;;;;;;;4975381;28;19921;-77
2022/09/07 01:11:59;;;;;;;;;;;;;;;;;;4975462;28;20392;-77
2022/09/07 01:14:24;;;;;;;;;;;;;;;;;;4975377;28;19921;-77
2022/09/07 01:16:49;;;;;;;;;;;;;;;;;;4975416;28;19915;-77
2022/09/07 01:19:14;;;;;;;;;;;;;;;;;;4975223;28;19917;-75
2022/09/07 01:21:40;;;;;;;;;;;;;;;;;;4975194;28;19918;-78
2022/09/07 01:24:05;;;;;;;;;;;;;;;;;;4975264;28;19921;-76
2022/09/07 01:26:30;;;;;;;;;;;;;;;;;;4973676;28;19918;-76
2022/09/07 01:28:56;;;;;;;;;;;;;;;;;;4974036;28;19920;-77
2022/09/07 01:31:21;;;;;;;;;;;;;;;;;;4990235;28;20001;-76
2022/09/07 01:33:46;;;;;;;;;;;;;;;;;;4974814;28;19953;-77
2022/09/07 01:36:12;;;;;;;;;;;;;;;;;;4974864;28;20005;-77
2022/09/07 01:38:37;;;;;;;;;;;;;;;;;;4989696;28;19914;-76
2022/09/07 01:41:02;;;;;;;;;;;;;;;;;;4974809;28;19921;-77
2022/09/07 01:43:28;;;;;;;;;;;;;;;;;;4974874;28;19918;-77
2022/09/07 01:45:53;;;;;;;;;;;;;;;;;;4975033;28;20288;-77
2022/09/07 01:48:18;;;;;;;;;;;;;;;;;;4975003;28;20391;-76
2022/09/07 01:50:44;;;;;;;;;;;;;;;;;;4974075;28;20362;-77
2022/09/07 01:53:09;;;;;;;;;;;;;;;;;;4974990;28;19914;-76
2022/09/07 01:55:35;;;;;;;;;;;;;;;;;;4974709;28;19914;-77
2022/09/07 01:58:00;;;;;;;;;;;;;;;;;;4973340;28;19914;-77
2022/09/07 02:00:25;;;;;;;;;;;;;;;;;;4974716;28;19914;-77
2022/09/07 02:02:51;;;;;;;;;;;;;;;;;;4974811;28;20441;-78
2022/09/07 02:05:16;;;;;;;;;;;;;;;;;;4975060;28;19920;-77
2022/09/07 02:07:42;;;;;;;;;;;;;;;;;;4974242;28;19918;-78
2022/09/07 02:10:07;;;;;;;;;;;;;;;;;;4989284;28;19933;-76
2022/09/07 02:12:33;;;;;;;;;;;;;;;;;;4974256;28;20443;-76
2022/09/07 02:14:59;;;;;;;;;;;;;;;;;;4974458;28;19922;-78
2022/09/07 02:17:24;;;;;;;;;;;;;;;;;;4974228;28;19969;-76
2022/09/07 02:19:50;;;;;;;;;;;;;;;;;;4989242;28;20044;-77
2022/09/07 02:22:15;;;;;;;;;;;;;;;;;;4989285;28;19914;-77
2022/09/07 02:24:40;;;;;;;;;;;;;;;;;;4989412;28;19914;-77
2022/09/07 02:27:06;;;;;;;;;;;;;;;;;;4988918;28;19920;-75
2022/09/07 02:29:31;;;;;;;;;;;;;;;;;;4973046;28;20300;-76
2022/09/07 02:31:56;;;;;;;;;;;;;;;;;;4988761;28;19914;-77
2022/09/07 02:34:22;;;;;;;;;;;;;;;;;;4988971;28;20400;-76
2022/09/07 02:36:47;;;;;;;;;;;;;;;;;;4973961;28;19917;-76
2022/09/07 02:39:15;;;;;;;;;;;;;;;;;;4973312;28;20373;-77
2022/09/07 02:41:41;;;;;;;;;;;;;;;;;;4973832;28;20443;-77
2022/09/07 02:44:06;;;;;;;;;;;;;;;;;;4973753;28;19914;-76
2022/09/07 02:46:31;;;;;;;;;;;;;;;;;;4973860;28;20391;-76
2022/09/07 02:48:57;;;;;;;;;;;;;;;;;;4973543;28;20373;-76
2022/09/07 02:51:22;;;;;;;;;;;;;;;;;;4973620;28;20424;-76
2022/09/07 02:53:47;;;;;;;;;;;;;;;;;;4988451;28;20393;-77
2022/09/07 02:56:13;;;;;;;;;;;;;;;;;;4973709;28;20373;-76
2022/09/07 02:58:38;;;;;;;;;;;;;;;;;;4988315;28;19918;-78
2022/09/07 03:01:03;;;;;;;;;;;;;;;;;;4972682;28;19915;-76
2022/09/07 03:03:29;;;;;;;;;;;;;;;;;;4973508;28;19921;-77
2022/09/07 03:05:54;;;;;;;;;;;;;;;;;;4973788;28;19914;-74
2022/09/07 03:08:19;;;;;;;;;;;;;;;;;;4972035;28;19922;-75
2022/09/07 03:10:45;;;;;;;;;;;;;;;;;;4972369;28;19918;-77
2022/09/07 03:13:10;;;;;;;;;;;;;;;;;;4989639;28;19920;-76
2022/09/07 03:15:35;;;;;;;;;;;;;;;;;;4992817;28;20364;-77
2022/09/07 03:18:01;;;;;;;;;;;;;;;;;;4992507;28;19914;-77
2022/09/07 03:20:26;;;;;;;;;;;;;;;;;;4991638;28;19918;-75
2022/09/07 03:22:51;;;;;;;;;;;;;;;;;;4992608;28;19976;-75
2022/09/07 03:25:17;;;;;;;;;;;;;;;;;;4991444;28;19964;-75
2022/09/07 03:27:42;;;;;;;;;;;;;;;;;;4992610;28;19925;-76
2022/09/07 03:30:07;;;;;;;;;;;;;;;;;;4991786;28;19969;-76
2022/09/07 03:32:33;;;;;;;;;;;;;;;;;;4976259;28;19965;-77
2022/09/07 03:34:58;;;;;;;;;;;;;;;;;;4988256;28;19965;-77
2022/09/07 03:37:23;;;;;;;;;;;;;;;;;;4973107;28;20381;-76
2022/09/07 03:39:49;;;;;;;;;;;;;;;;;;4987966;28;19921;-75
2022/09/07 03:42:14;;;;;;;;;;;;;;;;;;4973120;28;19915;-76
2022/09/07 03:44:40;;;;;;;;;;;;;;;;;;4971903;28;20464;-77
2022/09/07 03:47:05;;;;;;;;;;;;;;;;;;4973075;28;19924;-77
2022/09/07 03:49:30;;;;;;;;;;;;;;;;;;4973209;28;20424;-76
2022/09/07 03:51:56;;;;;;;;;;;;;;;;;;4975544;28;20425;-77
2022/09/07 03:54:21;;;;;;;;;;;;;;;;;;4976836;28;19914;-76
2022/09/07 03:56:47;;;;;;;;;;;;;;;;;;4976898;28;20399;-76
2022/09/07 03:59:12;;;;;;;;;;;;;;;;;;4976895;28;19914;-77
2022/09/07 04:01:38;;;;;;;;;;;;;;;;;;4975725;28;19965;-77
2022/09/07 04:04:04;;;;;;;;;;;;;;;;;;4975478;28;19922;-77
2022/09/07 04:06:29;;;;;;;;;;;;;;;;;;4980464;28;19917;-78
2022/09/07 04:08:58;;;;;;;;;;;;;;;;;;4996428;28;19917;-77
2022/09/07 04:11:23;;;;;;;;;;;;;;;;;;4994703;28;19913;-75
2022/09/07 04:13:48;;;;;;;;;;;;;;;;;;4995845;28;20269;-77
2022/09/07 04:16:14;;;;;;;;;;;;;;;;;;4995840;28;19910;-78
2022/09/07 04:18:39;;;;;;;;;;;;;;;;;;4995602;28;19917;-77
2022/09/07 04:21:04;;;;;;;;;;;;;;;;;;4995907;28;19913;-78
2022/09/07 04:23:30;;;;;;;;;;;;;;;;;;4988408;28;19990;-77
2022/09/07 04:25:55;;;;;;;;;;;;;;;;;;4976394;28;20005;-77
2022/09/07 04:28:20;;;;;;;;;;;;;;;;;;4975102;28;19918;-77
2022/09/07 04:30:46;;;;;;;;;;;;;;;;;;4976027;28;19973;-76
2022/09/07 04:33:11;;;;;;;;;;;;;;;;;;4975833;28;19918;-77
2022/09/07 04:35:36;;;;;;;;;;;;;;;;;;4975979;28;20433;-77
2022/09/07 04:38:02;;;;;;;;;;;;;;;;;;4975735;28;20438;-76
2022/09/07 04:40:27;;;;;;;;;;;;;;;;;;4975905;28;20400;-77
2022/09/07 04:42:52;;;;;;;;;;;;;;;;;;4974526;28;19968;-78
2022/09/07 04:45:18;;;;;;;;;;;;;;;;;;4975762;28;19988;-77
2022/09/07 04:47:43;;;;;;;;;;;;;;;;;;4975506;28;19918;-77
2022/09/07 04:50:09;;;;;;;;;;;;;;;;;;4975587;28;19961;-76
2022/09/07 04:52:34;;;;;;;;;;;;;;;;;;4975302;28;19914;-77
2022/09/07 04:54:59;;;;;;;;;;;;;;;;;;4975442;28;19914;-77
2022/09/07 04:57:25;;;;;;;;;;;;;;;;;;4975263;28;19914;-77
2022/09/07 04:59:51;;;;;;;;;;;;;;;;;;4990203;28;19922;-77
2022/09/07 05:02:16;;;;;;;;;;;;;;;;;;4989758;28;19914;-77
2022/09/07 05:07:32;;;;;;;;;;;;;;;;;;4974900;28;20424;-77
2022/09/07 05:09:57;;;;;;;;;;;;;;;;;;4975245;28;19914;-76
2022/09/07 05:12:23;;;;;;;;;;;;;;;;;;4990119;28;19975;-77
2022/09/07 05:14:48;;;;;;;;;;;;;;;;;;4989884;28;20450;-77
2022/09/07 05:17:14;;;;;;;;;;;;;;;;;;4974738;28;19976;-77
2022/09/07 05:19:39;;;;;;;;;;;;;;;;;;4974700;28;20356;-77
2022/09/07 05:22:04;;;;;;;;;;;;;;;;;;4974760;28;20016;-77
2022/09/07 05:24:29;;;;;;;;;;;;;;;;;;4974346;28;19914;-77
2022/09/07 05:26:55;;;;;;;;;;;;;;;;;;4989078;28;19928;-77
2022/09/07 05:29:20;;;;;;;;;;;;;;;;;;4975777;28;20268;-77
2022/09/07 05:31:46;;;;;;;;;;;;;;;;;;4993864;28;19914;-77
2022/09/07 05:34:12;;;;;;;;;;;;;;;;;;5004854;23;19933;-81
2022/09/07 05:36:37;;;;;;;;;;;;;;;;;;4993435;28;19967;-80
2022/09/07 05:39:03;;;;;;;;;;;;;;;;;;4976152;28;19914;-80
2022/09/07 05:41:28;;;;;;;;;;;;;;;;;;4976719;28;19914;-81
2022/09/07 05:43:54;;;;;;;;;;;;;;;;;;4976520;28;19910;-80
2022/09/07 05:46:19;;;;;;;;;;;;;;;;;;4972740;28;19922;-80
2022/09/07 05:48:44;;;;;;;;;;;;;;;;;;4956946;28;19918;-80
2022/09/07 05:51:10;;;;;;;;;;;;;;;;;;4975035;28;19921;-80
2022/09/07 05:53:35;;;;;;;;;;;;;;;;;;4973303;28;19914;-80
2022/09/07 05:56:00;;;;;;;;;;;;;;;;;;4957113;28;20368;-80
2022/09/07 05:58:26;;;;;;;;;;;;;;;;;;4972824;28;19965;-81
2022/09/07 06:00:51;;;;;;;;;;;;;;;;;;4974219;28;20292;-80
2022/09/07 06:03:17;;;;;;;;;;;;;;;;;;4975963;28;19937;-81
2022/09/07 06:05:42;;;;;;;;;;;;;;;;;;4956889;28;19914;-80
2022/09/07 06:08:07;;;;;;;;;;;;;;;;;;4974036;28;20332;-80
2022/09/07 06:10:32;;;;;;;;;;;;;;;;;;4973019;28;20341;-81
2022/09/07 06:13:00;;;;;;;;;;;;;;;;;;4973017;28;21549;-81
2022/09/07 06:15:25;;;;;;;;;;;;;;;;;;4972759;28;19964;-80
2022/09/07 06:17:50;;;;;;;;;;;;;;;;;;4989150;28;20325;-80
2022/09/07 06:20:16;;;;;;;;;;;;;;;;;;4973950;28;20369;-79
2022/09/07 06:22:41;;;;;;;;;;;;;;;;;;4974240;28;20297;-81
2022/09/07 06:25:07;;;;;;;;;;;;;;;;;;4988656;28;19914;-82
2022/09/07 06:27:32;;;;;;;;;;;;;;;;;;4988198;28;20369;-80
2022/09/07 06:29:57;;;;;;;;;;;;;;;;;;4973710;28;19914;-81
2022/09/07 06:32:23;;;;;;;;;;;;;;;;;;4972611;28;20005;-79
2022/09/07 06:34:48;;;;;;;;;;;;;;;;;;4973332;28;20340;-79
2022/09/07 06:37:13;;;;;;;;;;;;;;;;;;4973540;28;20285;-78
2022/09/07 06:39:39;;;;;;;;;;;;;;;;;;4973448;28;19921;-79
2022/09/07 06:42:04;;;;;;;;;;;;;;;;;;4973244;28;19914;-80
2022/09/07 06:44:30;;;;;;;;;;;;;;;;;;4990991;28;19921;-81
2022/09/07 06:46:55;;;;;;;;;;;;;;;;;;4973649;28;19918;-78
2022/09/07 06:49:22;;;;;;;;;;;;;;;;;;4972804;28;19925;-78
2022/09/07 06:51:47;;;;;;;;;;;;;;;;;;4989415;28;19925;-81
2022/09/07 06:54:13;;;;;;;;;;;;;;;;;;4974192;28;19914;-81
2022/09/07 06:56:38;;;;;;;;;;;;;;;;;;4974066;28;19914;-81
2022/09/07 06:59:03;;;;;;;;;;;;;;;;;;4973886;28;19914;-82
2022/09/07 07:01:31;;;;;;;;;;;;;;;;;;4974174;28;20381;-80
2022/09/07 07:03:56;;;;;;;;;;;;;;;;;;4988279;28;19914;-80
2022/09/07 07:06:21;;;;;;;;;;;;;;;;;;4973776;28;19972;-81
2022/09/07 07:08:47;;;;;;;;;;;;;;;;;;4973297;28;19937;-82
2022/09/07 07:11:12;;;;;;;;;;;;;;;;;;4988345;28;19960;-80
2022/09/07 07:13:37;;;;;;;;;;;;;;;;;;4973418;28;19915;-82
2022/09/07 07:16:04;;;;;;;;;;;;;;;;;;4973145;28;19910;-80
2022/09/07 07:18:29;;;;;;;;;;;;;;;;;;4971985;28;19961;-82
2022/09/07 07:20:54;;;;;;;;;;;;;;;;;;4973495;28;19926;-81
2022/09/07 07:23:20;;;;;;;;;;;;;;;;;;4973445;28;19986;-82
2022/09/07 07:25:45;;;;;;;;;;;;;;;;;;4985925;28;19921;-83
2022/09/07 07:28:11;;;;;;;;;;;;;;;;;;5010356;28;20134;-80
2022/09/07 07:30:36;;;;;;;;;;;;;;;;;;4981220;28;20401;-80
2022/09/07 07:33:03;;;;;;;;;;;;;;;;;;4991115;28;19922;-82
2022/09/07 07:35:28;;;;;;;;;;;;;;;;;;4996626;28;19918;-81
2022/09/07 07:37:54;;;;;;;;;;;;;;;;;;4994965;28;19920;-80
2022/09/07 07:40:19;;;;;;;;;;;;;;;;;;4996216;28;20282;-80
2022/09/07 07:42:44;;;;;;;;;;;;;;;;;;4998756;28;19913;-80
2022/09/07 07:45:10;;;;;;;;;;;;;;;;;;4998948;28;19940;-79
2022/09/07 07:47:35;;;;;;;;;;;;;;;;;;4998808;28;19957;-80
2022/09/07 07:50:01;;;;;;;;;;;;;;;;;;4992589;28;20427;-81
2022/09/07 07:52:27;;;;;;;;;;;;;;;;;;4997877;28;20424;-80
2022/09/07 07:54:53;;;;;;;;;;;;;;;;;;4998088;28;20144;-80
2022/09/07 07:57:18;;;;;;;;;;;;;;;;;;4997848;28;20268;-80
2022/09/07 07:59:44;;;;;;;;;;;;;;;;;;4996075;28;19972;-80
2022/09/07 08:02:09;;;;;;;;;;;;;;;;;;4994466;28;19957;-81
2022/09/07 08:04:34;;;;;;;;;;;;;;;;;;4994204;28;19975;-79
2022/09/07 08:07:00;;;;;;;;;;;;;;;;;;4995652;28;19940;-80
2022/09/07 08:09:25;;;;;;;;;;;;;;;;;;4994324;28;19929;-81
2022/09/07 08:11:50;;;;;;;;;;;;;;;;;;4995545;28;20368;-81
2022/09/07 08:14:16;;;;;;;;;;;;;;;;;;4995340;28;19914;-80
2022/09/07 08:16:41;;;;;;;;;;;;;;;;;;4996790;28;19937;-81
2022/09/07 08:19:07;;;;;;;;;;;;;;;;;;4999432;28;19953;-82
2022/09/07 08:21:32;;;;;;;;;;;;;;;;;;4984180;28;19913;-80
2022/09/07 08:23:58;;;;;;;;;;;;;;;;;;5001643;28;19920;-80
2022/09/07 08:26:24;;;;;;;;;;;;;;;;;;4999158;28;19961;-82
2022/09/07 08:28:49;;;;;;;;;;;;;;;;;;5019386;28;19914;-81
2022/09/07 08:31:14;;;;;;;;;;;;;;;;;;4999562;28;20345;-76
2022/09/07 08:33:40;;;;;;;;;;;;;;;;;;5002763;28;19917;-82
2022/09/07 08:36:06;;;;;;;;;;;;;;;;;;4995300;28;19976;-83
2022/09/07 08:38:37;;;;;;;;;;;;;;;;;;4992292;28;20009;-83
2022/09/07 08:41:29;;;;;;;;;;;;;;;;;;4987597;28;19968;-83
2022/09/07 08:43:56;;;;;;;;;;;;;;;;;;4993049;28;19957;-82
2022/09/07 08:46:21;;;;;;;;;;;;;;;;;;4995196;28;19917;-83
2022/09/07 08:48:46;;;;;;;;;;;;;;;;;;4999358;28;19924;-82
2022/09/07 08:51:12;;;;;;;;;;;;;;;;;;4992266;28;19921;-82
2022/09/07 08:53:37;;;;;;;;;;;;;;;;;;4992641;28;19921;-82
2022/09/07 08:56:03;;;;;;;;;;;;;;;;;;4987064;28;20404;-81
2022/09/07 08:58:28;;;;;;;;;;;;;;;;;;5006541;28;19996;-81
2022/09/07 09:00:53;;;;;;;;;;;;;;;;;;4986734;28;19914;-82
2022/09/07 09:03:19;;;;;;;;;;;;;;;;;;4993148;28;19917;-81
2022/09/07 09:05:44;;;;;;;;;;;;;;;;;;4994334;28;20316;-81
2022/09/07 09:08:09;;;;;;;;;;;;;;;;;;4994730;28;19922;-80
2022/09/07 09:10:35;;;;;;;;;;;;;;;;;;4996040;28;19914;-82
2022/09/07 09:13:00;;;;;;;;;;;;;;;;;;4994079;28;20252;-82
2022/09/07 09:15:29;;;;;;;;;;;;;;;;;;4993127;28;19933;-80
2022/09/07 09:17:55;;;;;;;;;;;;;;;;;;4997795;28;19980;-81
2022/09/07 09:20:20;;;;;;;;;;;;;;;;;;4994398;28;20403;-81
2022/09/07 09:22:45;;;;;;;;;;;;;;;;;;5000505;28;20374;-81
2022/09/07 09:25:11;;;;;;;;;;;;;;;;;;4994419;28;19920;-80
2022/09/07 09:27:36;;;;;;;;;;;;;;;;;;4993879;28;20282;-82
2022/09/07 09:30:01;;;;;;;;;;;;;;;;;;4993841;28;19929;-80
2022/09/07 09:32:27;;;;;;;;;;;;;;;;;;4994562;28;19926;-84
2022/09/07 09:34:52;;;;;;;;;;;;;;;;;;4995529;28;19934;-83
2022/09/07 09:37:18;;;;;;;;;;;;;;;;;;4977027;28;20452;-82
2022/09/07 09:39:43;;;;;;;;;;;;;;;;;;4994077;28;19914;-81
2022/09/07 09:42:08;;;;;;;;;;;;;;;;;;4994052;28;19920;-85
2022/09/07 09:44:36;;;;;;;;;;;;;;;;;;4993786;28;19967;-83
2022/09/07 09:47:01;;;;;;;;;;;;;;;;;;4992349;28;20344;-81
2022/09/07 09:49:27;;;;;;;;;;;;;;;;;;4992171;28;20072;-81
2022/09/07 09:51:52;;;;;;;;;;;;;;;;;;4992702;28;20293;-80
2022/09/07 09:54:17;;;;;;;;;;;;;;;;;;4992299;28;19914;-82
2022/09/07 09:56:43;;;;;;;;;;;;;;;;;;4992010;28;20312;-81
2022/09/07 09:59:08;;;;;;;;;;;;;;;;;;4975873;28;20237;-81
2022/09/07 10:01:34;;;;;;;;;;;;;;;;;;4979202;28;20068;-81
2022/09/07 10:03:59;;;;;;;;;;;;;;;;;;4987074;28;19917;-82
2022/09/07 10:06:24;;;;;;;;;;;;;;;;;;4992301;28;20403;-81
2022/09/07 10:08:50;;;;;;;;;;;;;;;;;;4960339;28;20347;-82
2022/09/07 10:11:15;;;;;;;;;;;;;;;;;;4994721;28;20431;-82
2022/09/07 10:13:41;;;;;;;;;;;;;;;;;;4976733;28;20368;-83
2022/09/07 10:16:06;;;;;;;;;;;;;;;;;;4992313;28;20380;-80
2022/09/07 10:18:31;;;;;;;;;;;;;;;;;;4993776;28;20419;-81
2022/09/07 10:20:57;;;;;;;;;;;;;;;;;;4992686;28;20381;-80
2022/09/07 10:23:22;;;;;;;;;;;;;;;;;;4992646;28;20363;-80
2022/09/07 10:25:47;;;;;;;;;;;;;;;;;;4988209;28;20002;-81
2022/09/07 10:28:13;;;;;;;;;;;;;;;;;;4990693;28;19918;-81
2022/09/07 10:30:39;;;;;;;;;;;;;;;;;;4993575;28;20330;-81
2022/09/07 10:33:07;;;;;;;;;;;;;;;;;;4992964;28;20027;-81
2022/09/07 10:35:32;;;;;;;;;;;;;;;;;;4991951;28;19917;-82
2022/09/07 10:37:58;;;;;;;;;;;;;;;;;;4993157;28;19914;-80
2022/09/07 10:40:23;;;;;;;;;;;;;;;;;;4992699;28;20412;-81
2022/09/07 10:42:49;;;;;;;;;;;;;;;;;;4992737;28;19914;-81
2022/09/07 10:45:14;;;;;;;;;;;;;;;;;;4992639;28;19913;-79
2022/09/07 10:47:42;;;;;;;;;;;;;;;;;;4991441;28;19929;-81
2022/09/07 10:50:07;;;;;;;;;;;;;;;;;;4995384;28;20285;-80
2022/09/07 10:52:32;;;;;;;;;;;;;;;;;;4992858;28;19914;-80
2022/09/07 10:54:58;;;;;;;;;;;;;;;;;;4993076;28;20352;-79
2022/09/07 10:57:23;;;;;;;;;;;;;;;;;;4991491;28;20286;-81
2022/09/07 10:59:49;;;;;;;;;;;;;;;;;;4992518;28;20348;-83
2022/09/07 11:02:14;;;;;;;;;;;;;;;;;;4992015;28;19920;-83
2022/09/07 11:04:39;;;;;;;;;;;;;;;;;;4993102;28;19917;-84
2022/09/07 11:07:05;;;;;;;;;;;;;;;;;;4992881;28;19918;-85
2022/09/07 11:09:30;;;;;;;;;;;;;;;;;;4993481;28;20443;-85
2022/09/07 11:11:55;;;;;;;;;;;;;;;;;;4993349;28;19960;-84
2022/09/07 11:14:21;;;;;;;;;;;;;;;;;;4993868;28;20011;-85
2022/09/07 11:16:46;;;;;;;;;;;;;;;;;;4993947;28;19948;-85
2022/09/07 11:19:12;;;;;;;;;;;;;;;;;;4995253;28;19924;-83
2022/09/07 11:21:37;;;;;;;;;;;;;;;;;;4993513;28;19909;-84
2022/09/07 11:24:07;;;;;;;;;;;;;;;;;;4993636;28;20403;-84
2022/09/07 11:26:32;;;;;;;;;;;;;;;;;;4977117;28;19926;-85
2022/09/07 11:28:59;;;;;;;;;;;;;;;;;;4991664;28;19921;-85
2022/09/07 11:31:24;;;;;;;;;;;;;;;;;;4991638;28;20288;-85
2022/09/07 11:33:50;;;;;;;;;;;;;;;;;;5090701;22;19930;-89
2022/09/07 11:36:16;;;;;;;;;;;;;;;;;;4996157;28;19902;-91
2022/09/07 11:38:44;;;;;;;;;;;;;;;;;;4994088;28;19910;-90
2022/09/07 11:41:09;;;;;;;;;;;;;;;;;;4977761;28;20451;-91
2022/09/07 11:43:39;;;;;;;;;;;;;;;;;;4976102;28;19925;-90
2022/09/07 11:46:14;;;;;;;;;;;;;;;;;;4945552;28;19977;-90
2022/09/07 11:48:40;;;;;;;;;;;;;;;;;;4949820;28;19941;-92
2022/09/07 11:51:05;;;;;;;;;;;;;;;;;;4968798;28;19933;-90
2022/09/07 11:53:33;;;;;;;;;;;;;;;;;;4959566;28;19914;-88
2022/09/07 11:55:59;;;;;;;;;;;;;;;;;;4941538;28;19921;-88
2022/09/07 11:58:24;;;;;;;;;;;;;;;;;;4974138;28;19911;-83
2022/09/07 12:00:50;;;;;;;;;;;;;;;;;;4941089;28;19914;-90
2022/09/07 12:03:17;;;;;;;;;;;;;;;;;;4941066;28;19914;-86
2022/09/07 12:05:43;;;;;;;;;;;;;;;;;;4972123;28;20396;-84
2022/09/07 12:08:08;;;;;;;;;;;;;;;;;;4972144;28;19918;-92
2022/09/07 12:10:34;;;;;;;;;;;;;;;;;;4956708;28;19921;-88
2022/09/07 12:13:02;;;;;;;;;;;;;;;;;;4978670;28;19922;-90
2022/09/07 12:15:31;;;;;;;;;;;;;;;;;;4965757;28;19918;-92
2022/09/07 12:17:57;;;;;;;;;;;;;;;;;;4965733;28;19921;-81
2022/09/07 12:20:22;;;;;;;;;;;;;;;;;;4976442;28;19914;-83
2022/09/07 12:22:48;;;;;;;;;;;;;;;;;;4977014;28;19946;-83
2022/09/07 12:25:13;;;;;;;;;;;;;;;;;;4974791;28;19914;-84
2022/09/07 12:27:39;;;;;;;;;;;;;;;;;;4976641;28;19990;-80
2022/09/07 12:30:04;;;;;;;;;;;;;;;;;;4982734;28;19989;-86
2022/09/07 12:32:29;;;;;;;;;;;;;;;;;;4975818;28;19917;-91
2022/09/07 12:34:56;;;;;;;;;;;;;;;;;;4957806;28;19941;-90
2022/09/07 12:37:22;;;;;;;;;;;;;;;;;;4949442;28;19914;-92
2022/09/07 12:39:47;;;;;;;;;;;;;;;;;;4953697;28;19930;-91
2022/09/07 12:44:39;;;;;;;;;;;;;;;;;;5001406;28;19968;-90
2022/09/07 12:47:05;;;;;;;;;;;;;;;;;;4979963;28;19918;-82
2022/09/07 12:49:30;;;;;;;;;;;;;;;;;;4997027;28;19921;-86
2022/09/07 12:51:55;;;;;;;;;;;;;;;;;;4999373;28;20391;-89
2022/09/07 12:54:21;;;;;;;;;;;;;;;;;;4984723;28;19955;-92
2022/09/07 12:56:49;;;;;;;;;;;;;;;;;;4986228;28;19921;-90
2022/09/07 12:59:17;;;;;;;;;;;;;;;;;;5011734;28;19976;-86
2022/09/07 13:01:43;;;;;;;;;;;;;;;;;;5014460;28;19910;-89
2022/09/07 13:04:08;;;;;;;;;;;;;;;;;;5000892;28;19978;-87
2022/09/07 13:06:55;;;;;;;;;;;;;;;;;;5019028;28;19941;-93
2022/09/07 13:09:21;;;;;;;;;;;;;;;;;;5014543;28;19965;-89
2022/09/07 13:11:47;;;;;;;;;;;;;;;;;;5002188;28;19941;-91
2022/09/07 13:14:12;;;;;;;;;;;;;;;;;;5001900;28;19902;-84
2022/09/07 13:16:38;;;;;;;;;;;;;;;;;;5017712;28;19925;-85
2022/09/07 13:19:03;;;;;;;;;;;;;;;;;;5013601;28;19925;-83
2022/09/07 13:21:28;;;;;;;;;;;;;;;;;;4999114;28;19926;-82
2022/09/07 13:23:54;;;;;;;;;;;;;;;;;;4997351;28;19918;-89
2022/09/07 13:26:20;;;;;;;;;;;;;;;;;;4996613;28;19945;-88
2022/09/07 13:28:45;;;;;;;;;;;;;;;;;;4997726;28;19918;-90
2022/09/07 13:31:10;;;;;;;;;;;;;;;;;;4998960;28;20280;-87
2022/09/07 13:33:36;;;;;;;;;;;;;;;;;;4995465;28;19922;-86
2022/09/07 13:36:01;;;;;;;;;;;;;;;;;;4994169;28;19914;-86
2022/09/07 13:38:27;;;;;;;;;;;;;;;;;;4994873;28;19921;-85
2022/09/07 13:40:53;;;;;;;;;;;;;;;;;;4996110;28;20399;-88
2022/09/07 13:43:18;;;;;;;;;;;;;;;;;;4978295;28;19928;-88
2022/09/07 13:45:45;;;;;;;;;;;;;;;;;;4996167;28;19914;-86
2022/09/07 13:48:11;;;;;;;;;;;;;;;;;;4979375;28;19933;-86
2022/09/07 13:50:36;;;;;;;;;;;;;;;;;;4999631;28;19914;-87
2022/09/07 13:53:01;;;;;;;;;;;;;;;;;;4992601;28;19914;-87
2022/09/07 13:55:27;;;;;;;;;;;;;;;;;;4977473;28;20261;-86
2022/09/07 13:57:52;;;;;;;;;;;;;;;;;;4979933;28;20027;-86
2022/09/07 14:00:18;;;;;;;;;;;;;;;;;;4993892;28;19960;-77
2022/09/07 14:02:44;;;;;;;;;;;;;;;;;;4992421;28;19914;-89
2022/09/07 14:05:10;;;;;;;;;;;;;;;;;;4968463;28;20333;-88
2022/09/07 14:07:35;;;;;;;;;;;;;;;;;;4986493;28;19918;-88
2022/09/07 14:10:00;;;;;;;;;;;;;;;;;;4973098;28;20203;-87
2022/09/07 14:12:26;;;;;;;;;;;;;;;;;;4994423;28;19914;-91
2022/09/07 14:14:51;;;;;;;;;;;;;;;;;;4960491;28;19914;-90
2022/09/07 14:17:17;;;;;;;;;;;;;;;;;;4976365;28;20332;-90
2022/09/07 14:19:43;;;;;;;;;;;;;;;;;;4979276;28;19914;-89
2022/09/07 14:22:09;;;;;;;;;;;;;;;;;;4993226;28;19913;-90
2022/09/07 14:24:34;;;;;;;;;;;;;;;;;;4995296;28;19914;-88
2022/09/07 14:27:00;;;;;;;;;;;;;;;;;;4975893;28;19918;-89
2022/09/07 14:29:25;;;;;;;;;;;;;;;;;;4992080;28;19913;-88
2022/09/07 14:31:50;;;;;;;;;;;;;;;;;;4992434;28;19914;-88
2022/09/07 14:34:16;;;;;;;;;;;;;;;;;;4992284;28;19921;-89
2022/09/07 14:36:43;;;;;;;;;;;;;;;;;;4993035;28;19918;-90
2022/09/07 14:39:09;;;;;;;;;;;;;;;;;;4977168;28;19914;-89
2022/09/07 14:41:37;;;;;;;;;;;;;;;;;;4999462;28;19958;-92
2022/09/07 14:44:02;;;;;;;;;;;;;;;;;;4968294;28;19918;-93
2022/09/07 14:46:28;;;;;;;;;;;;;;;;;;4982329;28;19929;-91
2022/09/07 14:48:53;;;;;;;;;;;;;;;;;;4949156;28;19914;-89
2022/09/07 14:51:19;;;;;;;;;;;;;;;;;;4993317;28;19914;-85
2022/09/07 14:53:44;;;;;;;;;;;;;;;;;;4976121;28;19914;-86
2022/09/07 14:56:10;;;;;;;;;;;;;;;;;;4991809;28;20024;-88
2022/09/07 14:58:35;;;;;;;;;;;;;;;;;;4975857;28;20470;-87
2022/09/07 15:01:00;;;;;;;;;;;;;;;;;;4976452;28;19910;-88
2022/09/07 15:03:26;;;;;;;;;;;;;;;;;;4976098;28;19921;-87
2022/09/07 15:05:52;;;;;;;;;;;;;;;;;;4993855;28;19949;-86
2022/09/07 15:08:17;;;;;;;;;;;;;;;;;;4991560;28;20012;-87
2022/09/07 15:10:42;;;;;;;;;;;;;;;;;;4993117;28;19957;-87
2022/09/07 15:13:08;;;;;;;;;;;;;;;;;;4975903;28;19914;-87
2022/09/07 15:15:33;;;;;;;;;;;;;;;;;;4992365;28;19913;-88
2022/09/07 15:17:59;;;;;;;;;;;;;;;;;;4976942;28;20012;-88
2022/09/07 15:20:24;;;;;;;;;;;;;;;;;;4976669;28;20411;-88
2022/09/07 15:22:49;;;;;;;;;;;;;;;;;;4974909;28;20293;-88
2022/09/07 15:25:15;;;;;;;;;;;;;;;;;;4995715;28;19945;-89
2022/09/07 15:27:40;;;;;;;;;;;;;;;;;;4975747;28;20339;-87
2022/09/07 15:30:05;;;;;;;;;;;;;;;;;;4991302;28;19960;-88
2022/09/07 15:32:31;;;;;;;;;;;;;;;;;;4985897;28;19921;-89
2022/09/07 15:34:56;;;;;;;;;;;;;;;;;;4992364;28;19933;-89
2022/09/07 15:37:22;;;;;;;;;;;;;;;;;;4992668;28;20000;-89
2022/09/07 15:39:47;;;;;;;;;;;;;;;;;;4997663;28;19936;-78
2022/09/07 15:42:12;;;;;;;;;;;;;;;;;;4995531;28;19914;-91
2022/09/07 15:44:40;;;;;;;;;;;;;;;;;;4978601;28;20016;-90
2022/09/07 15:47:06;;;;;;;;;;;;;;;;;;4977017;28;19969;-91
2022/09/07 15:49:31;;;;;;;;;;;;;;;;;;4964986;28;20288;-89
2022/09/07 15:51:57;;;;;;;;;;;;;;;;;;4965107;28;19918;-90
2022/09/07 15:54:22;;;;;;;;;;;;;;;;;;4980689;28;19913;-89
2022/09/07 15:56:51;;;;;;;;;;;;;;;;;;4982335;28;19941;-87
2022/09/07 15:59:19;;;;;;;;;;;;;;;;;;4980417;28;19914;-89
2022/09/07 16:01:45;;;;;;;;;;;;;;;;;;4964139;28;19937;-89
2022/09/07 16:04:10;;;;;;;;;;;;;;;;;;4999571;28;20037;-91
2022/09/07 16:06:35;;;;;;;;;;;;;;;;;;4989339;28;19918;-89
2022/09/07 16:09:01;;;;;;;;;;;;;;;;;;4965675;28;19915;-90
2022/09/07 16:11:26;;;;;;;;;;;;;;;;;;4969431;28;19922;-90
2022/09/07 16:13:52;;;;;;;;;;;;;;;;;;4971996;28;19914;-79
2022/09/07 16:16:17;;;;;;;;;;;;;;;;;;5003692;28;20037;-89
2022/09/07 16:18:43;;;;;;;;;;;;;;;;;;5007240;28;19953;-86
2022/09/07 16:21:08;;;;;;;;;;;;;;;;;;5006233;28;20001;-86
2022/09/07 16:23:33;;;;;;;;;;;;;;;;;;4971123;28;19921;-83
2022/09/07 16:25:59;;;;;;;;;;;;;;;;;;5004372;28;19913;-87
2022/09/07 16:28:24;;;;;;;;;;;;;;;;;;4985667;28;19917;-87
2022/09/07 16:30:49;;;;;;;;;;;;;;;;;;4973714;28;20379;-87
2022/09/07 16:33:15;;;;;;;;;;;;;;;;;;4967192;28;20012;-86
2022/09/07 16:35:40;;;;;;;;;;;;;;;;;;4963571;28;19945;-84
2022/09/07 16:38:06;;;;;;;;;;;;;;;;;;4994585;28;19988;-80
2022/09/07 16:40:31;;;;;;;;;;;;;;;;;;4998153;28;19960;-84